Time;durP1;ratioP1;P1;durP2;ratioP2;P2;SDS_P1;SDS_P2;PMS_P1;PMS_P2;Temp;Humidity;BMP_temperature;BMP_pressure;BME280_temperature;BME280_humidity;BME280_pressure;Samples;Min_cycle;Max_cycle;Signal;HPM_P1;HPM_P2
2021/06/11 00:01:42;;;;;;;6.45;4.60;;;;;;;16.89;88.40;100945.72;1767097;81;21090;-77
2021/06/11 00:04:09;;;;;;;6.58;4.90;;;;;;;16.86;88.77;100945.16;1767222;81;20898;-76
2021/06/11 00:06:36;;;;;;;5.25;4.22;;;;;;;16.79;89.19;100947.48;1767581;81;20899;-73
2021/06/11 00:09:06;;;;;;;5.78;4.45;;;;;;;16.73;89.22;100944.09;1767108;81;20959;-75
2021/06/11 00:11:34;;;;;;;6.67;4.10;;;;;;;16.68;89.09;100939.74;1767604;81;21803;-73
2021/06/11 00:14:01;;;;;;;5.67;3.90;;;;;;;16.65;88.94;100943.94;1767187;81;20991;-72
2021/06/11 00:16:28;;;;;;;5.22;3.85;;;;;;;16.65;88.72;100942.63;1767358;81;20907;-76
2021/06/11 00:18:55;;;;;;;4.97;3.83;;;;;;;16.65;88.47;100948.34;1767178;81;20907;-72
2021/06/11 00:21:22;;;;;;;4.00;3.60;;;;;;;16.65;88.24;100944.42;1767562;81;21516;-72
2021/06/11 00:23:49;;;;;;;7.12;4.15;;;;;;;16.63;88.10;100946.32;1767209;81;21094;-74
2021/06/11 00:26:16;;;;;;;5.83;3.87;;;;;;;16.60;87.97;100948.73;1767422;81;21021;-75
2021/06/11 00:28:43;;;;;;;9.15;4.25;;;;;;;16.57;87.90;100959.95;1766996;81;21003;-73
2021/06/11 00:31:10;;;;;;;6.35;3.72;;;;;;;16.53;87.92;100949.38;1767523;81;21042;-71
2021/06/11 00:33:38;;;;;;;7.30;3.85;;;;;;;16.50;87.94;100944.38;1767340;81;20879;-72
2021/06/11 00:36:05;;;;;;;7.35;3.77;;;;;;;16.49;87.93;100947.98;1767548;81;21117;-76
2021/06/11 00:38:33;;;;;;;4.67;3.75;;;;;;;16.48;87.83;100947.14;1767089;81;20990;-74
2021/06/11 00:41:00;;;;;;;5.12;3.95;;;;;;;16.51;87.63;100950.81;1767752;81;21004;-76
2021/06/11 00:43:27;;;;;;;5.75;3.37;;;;;;;16.52;87.44;100943.78;1767212;81;21019;-73
2021/06/11 00:45:56;;;;;;;6.62;4.05;;;;;;;16.51;87.34;100944.26;1767289;81;20939;-76
2021/06/11 00:48:24;;;;;;;5.70;3.55;;;;;;;16.48;87.30;100939.77;1767351;81;21518;-77
2021/06/11 00:50:51;;;;;;;5.50;3.62;;;;;;;16.45;87.45;100941.34;1767231;81;20927;-74
2021/06/11 00:53:18;;;;;;;4.10;3.12;;;;;;;16.38;87.71;100933.17;1767253;81;21036;-77
2021/06/11 00:55:45;;;;;;;3.75;3.20;;;;;;;16.34;87.94;100935.70;1767635;81;20939;-76
2021/06/11 00:58:13;;;;;;;4.25;3.20;;;;;;;16.30;88.14;100924.69;1767285;81;21054;-74
2021/06/11 01:00:40;;;;;;;5.50;3.45;;;;;;;16.29;88.23;100928.25;1767361;81;21104;-77
2021/06/11 01:03:07;;;;;;;4.62;3.50;;;;;;;16.29;88.52;100932.19;1767065;81;21449;-75
2021/06/11 01:05:34;;;;;;;8.65;3.77;;;;;;;16.28;88.67;100939.68;1767082;81;20977;-75
2021/06/11 01:08:01;;;;;;;4.00;3.60;;;;;;;16.27;88.80;100937.20;1767168;81;21015;-72
2021/06/11 01:10:29;;;;;;;5.05;3.80;;;;;;;16.24;88.84;100936.97;1767306;81;20950;-74
2021/06/11 01:12:56;;;;;;;4.17;3.30;;;;;;;16.23;88.93;100935.33;1767277;81;21065;-74
2021/06/11 01:15:23;;;;;;;4.10;3.47;;;;;;;16.18;88.97;100934.88;1767200;81;20914;-73
2021/06/11 01:17:52;;;;;;;6.35;3.83;;;;;;;16.16;89.09;100935.97;1767403;81;20939;-72
2021/06/11 01:20:20;;;;;;;5.47;3.60;;;;;;;16.15;89.17;100942.16;1739977;81;20938;-72
2021/06/11 01:23:27;;;;;;;7.53;3.35;;;;;;;16.13;89.32;100939.69;1767398;81;20943;-77
2021/06/11 01:26:09;;;;;;;4.00;3.40;;;;;;;16.11;89.41;100950.77;1767085;81;21110;-74
2021/06/11 01:28:36;;;;;;;5.10;3.70;;;;;;;16.09;89.65;100946.13;1767322;81;20903;-74
2021/06/11 01:31:03;;;;;;;5.17;3.80;;;;;;;16.09;89.86;100942.20;1767279;81;20990;-75
2021/06/11 01:33:31;;;;;;;5.00;3.90;;;;;;;16.08;90.02;100940.53;1767353;81;21029;-76
2021/06/11 01:36:05;;;;;;;5.60;2.87;;;;;;;16.10;90.18;100951.72;1767815;81;21504;-76
2021/06/11 01:38:39;;;;;;;5.78;3.52;;;;;;;16.10;90.18;100950.41;1767758;81;21118;-73
2021/06/11 01:41:08;;;;;;;9.18;3.58;;;;;;;16.12;90.28;100958.95;1767286;81;20990;-76
2021/06/11 01:43:35;;;;;;;5.08;3.50;;;;;;;16.12;90.42;100958.13;1767324;81;21000;-77
2021/06/11 01:46:02;;;;;;;5.97;3.62;;;;;;;16.12;90.56;100955.50;1767397;81;21066;-76
2021/06/11 01:48:29;;;;;;;5.75;3.40;;;;;;;16.11;90.48;100952.56;1767267;81;21529;-76
2021/06/11 01:50:57;;;;;;;5.95;3.65;;;;;;;16.12;90.55;100948.48;1714822;81;21854;-80
2021/06/11 01:53:24;;;;;;;4.97;3.35;;;;;;;16.14;90.60;100945.75;1739173;81;20938;-74
2021/06/11 01:55:52;;;;;;;6.12;4.35;;;;;;;16.14;90.80;100943.97;1767350;81;20975;-75
2021/06/11 01:58:19;;;;;;;4.60;3.98;;;;;;;16.15;90.86;100952.16;1767089;81;21572;-72
2021/06/11 02:00:46;;;;;;;4.37;3.80;;;;;;;16.15;90.89;100951.31;1767048;81;20922;-73
2021/06/11 02:03:16;;;;;;;4.65;3.42;;;;;;;16.16;90.95;100951.20;1767093;81;21094;-73
2021/06/11 02:05:44;;;;;;;5.62;3.33;;;;;;;16.16;91.00;100952.52;1767218;81;20939;-72
2021/06/11 02:08:11;;;;;;;3.83;3.40;;;;;;;16.17;91.08;100949.42;1767138;81;21017;-77
2021/06/11 02:10:38;;;;;;;5.85;3.50;;;;;;;16.16;91.12;100954.30;1739148;81;21011;-74
2021/06/11 02:13:07;;;;;;;5.78;3.27;;;;;;;16.16;91.10;100953.82;1739304;81;21442;-78
2021/06/11 02:15:34;;;;;;;4.35;3.37;;;;;;;16.16;91.09;100947.27;1739279;81;21134;-77
2021/06/11 02:18:01;;;;;;;6.95;3.47;;;;;;;16.12;91.15;100945.03;1767082;81;20923;-77
2021/06/11 02:20:28;;;;;;;5.12;3.40;;;;;;;16.11;91.17;100948.16;1767089;81;20899;-76
2021/06/11 02:22:55;;;;;;;5.20;3.58;;;;;;;16.08;91.15;100935.30;1767110;81;21498;-72
2021/06/11 02:25:25;;;;;;;6.03;3.22;;;;;;;16.07;91.11;100940.20;1766973;81;21011;-73
2021/06/11 02:27:54;;;;;;;4.37;3.27;;;;;;;16.08;90.96;100943.66;1767154;81;21730;-76
2021/06/11 02:30:21;;;;;;;4.90;3.05;;;;;;;16.06;90.84;100941.16;1767021;81;21022;-73
2021/06/11 02:32:48;;;;;;;5.15;3.05;;;;;;;16.05;90.82;100939.98;1767283;81;20844;-77
2021/06/11 02:35:23;;;;;;;4.58;3.45;;;;;;;16.03;90.80;100945.34;1767088;81;21003;-79
2021/06/11 02:37:50;;;;;;;4.67;3.80;;;;;;;16.01;90.77;100940.72;1767220;81;21398;-75
2021/06/11 02:40:17;;;;;;;7.87;3.62;;;;;;;15.98;90.78;100937.53;1767013;81;21113;-78
2021/06/11 02:42:47;;;;;;;5.55;3.00;;;;;;;15.95;90.93;100941.24;1767228;81;21489;-71
2021/06/11 02:45:25;;;;;;;5.90;3.40;;;;;;;15.94;91.01;100949.20;1767284;81;21482;-73
2021/06/11 02:48:25;;;;;;;4.90;3.15;;;;;;;15.91;91.18;100942.92;1767150;81;20982;-76
2021/06/11 02:51:09;;;;;;;5.80;3.67;;;;;;;15.88;91.35;100946.16;1767174;81;20978;-72
2021/06/11 02:53:36;;;;;;;4.70;3.30;;;;;;;15.87;91.47;100949.72;1767224;81;21118;-77
2021/06/11 02:56:29;;;;;;;6.35;3.75;;;;;;;15.89;91.57;100950.89;1767225;81;20891;-77
2021/06/11 02:59:02;;;;;;;5.05;3.47;;;;;;;15.92;91.54;100951.14;1766377;81;20852;-73
2021/06/11 03:01:30;;;;;;;4.92;3.75;;;;;;;15.93;91.54;100951.46;1767111;81;21046;-79
2021/06/11 03:03:57;;;;;;;5.25;3.35;;;;;;;15.93;91.58;100953.61;1765542;81;21007;-76
2021/06/11 03:06:24;;;;;;;5.42;3.20;;;;;;;15.95;91.55;100962.66;1763585;81;21780;-74
2021/06/11 03:08:51;;;;;;;12.43;3.30;;;;;;;15.92;91.54;100957.20;1763453;81;21500;-74
2021/06/11 03:11:37;;;;;;;10.00;4.08;;;;;;;15.92;91.64;100960.30;1763746;81;20954;-70
2021/06/11 03:14:00;;;;;;;6.03;3.40;;;;;;;15.93;91.88;100967.17;1762740;81;20986;-76
2021/06/11 03:16:28;;;;;;;5.42;3.50;;;;;;;15.91;91.88;100968.63;1763622;81;21043;-79
2021/06/11 03:19:08;;;;;;;4.78;3.50;;;;;;;15.91;92.04;100970.41;1763661;81;21926;-75
2021/06/11 03:21:42;;;;;;;7.55;3.85;;;;;;;15.91;92.21;100973.02;1763560;81;20935;-72
2021/06/11 03:24:31;;;;;;;5.72;2.98;;;;;;;15.91;92.37;100980.41;1763836;81;21125;-73
2021/06/11 03:27:18;;;;;;;5.28;3.92;;;;;;;15.94;92.37;100978.83;1763912;81;21505;-75
2021/06/11 03:29:49;;;;;;;6.55;4.10;;;;;;;15.99;92.37;100983.67;1763583;81;21109;-79
2021/06/11 03:32:24;;;;;;;4.25;3.70;;;;;;;16.05;92.32;100983.19;1763987;81;21093;-73
2021/06/11 03:34:51;;;;;;;4.65;3.40;;;;;;;16.08;92.33;100988.16;1762831;81;21014;-76
2021/06/11 03:37:18;;;;;;;5.83;3.70;;;;;;;16.13;92.14;100984.66;1764009;81;20978;-73
2021/06/11 03:39:50;;;;;;;7.80;3.85;;;;;;;16.15;92.15;100978.34;1732126;81;20954;-72
2021/06/11 03:42:18;;;;;;;5.40;3.73;;;;;;;16.14;92.22;100977.17;1763866;81;21627;-73
2021/06/11 03:44:48;;;;;;;3.95;3.50;;;;;;;16.15;92.37;100984.05;1763849;81;21114;-73
2021/06/11 03:47:18;;;;;;;5.97;3.75;;;;;;;16.15;92.64;100984.88;1763827;81;20939;-73
2021/06/11 03:49:47;;;;;;;6.22;3.52;;;;;;;16.19;92.85;100978.44;1763892;81;20971;-72
2021/06/11 03:52:14;;;;;;;7.42;3.92;;;;;;;16.24;92.97;100982.80;1763729;81;21032;-76
2021/06/11 03:54:45;;;;;;;6.22;3.27;;;;;;;16.27;93.11;100980.42;1763673;81;20982;-77
2021/06/11 03:57:12;;;;;;;4.03;3.60;;;;;;;16.31;93.28;100976.56;1763642;81;21085;-73
2021/06/11 03:59:40;;;;;;;5.65;3.37;;;;;;;16.38;93.40;100975.92;1763764;81;20986;-76
2021/06/11 04:02:07;;;;;;;4.67;4.15;;;;;;;16.45;93.09;100974.91;1763842;81;21434;-76
2021/06/11 04:04:34;;;;;;;7.97;3.60;;;;;;;16.50;93.12;100974.03;1731148;81;21505;-75
2021/06/11 04:07:09;;;;;;;4.25;3.25;;;;;;;16.59;92.55;100971.16;1731207;81;20971;-75
2021/06/11 04:09:44;;;;;;;6.12;3.72;;;;;;;16.64;92.13;100985.51;1758920;81;21114;-84
2021/06/11 04:12:12;;;;;;;7.87;3.42;;;;;;;16.69;91.80;100984.62;1758732;81;21025;-74
2021/06/11 04:14:45;;;;;;;4.05;3.17;;;;;;;16.71;91.98;100980.09;1758922;81;20982;-76
2021/06/11 04:17:13;;;;;;;5.22;3.55;;;;;;;16.74;91.95;100978.52;1758824;81;21561;-71
2021/06/11 04:19:58;;;;;;;5.80;3.42;;;;;;;16.78;91.81;100979.08;1758903;81;20963;-78
2021/06/11 04:22:35;;;;;;;4.90;3.45;;;;;;;16.78;91.48;100984.33;1758650;81;21122;-76
2021/06/11 04:25:04;;;;;;;4.12;3.58;;;;;;;16.80;91.73;100977.15;1758629;81;20954;-72
2021/06/11 04:27:39;;;;;;;4.28;3.85;;;;;;;16.85;91.38;100986.27;1758839;81;21022;-71
2021/06/11 04:30:08;;;;;;;7.15;4.00;;;;;;;16.89;91.21;100982.42;1758868;81;21446;-77
2021/06/11 04:32:35;;;;;;;9.23;3.72;;;;;;;16.94;91.38;100986.77;1731751;81;20994;-76
2021/06/11 04:35:03;;;;;;;6.28;3.95;;;;;;;16.98;91.01;100993.05;1758862;81;21073;-72
2021/06/11 04:37:30;;;;;;;10.60;4.05;;;;;;;17.02;91.19;100990.04;1758856;81;21616;-75
2021/06/11 04:39:57;;;;;;;9.85;4.03;;;;;;;17.11;91.36;100987.08;1758913;81;20950;-76
2021/06/11 04:42:24;;;;;;;8.43;3.87;;;;;;;17.19;91.23;100989.39;1758940;81;20939;-74
2021/06/11 04:44:51;;;;;;;6.40;3.77;;;;;;;17.30;91.02;100997.60;1758868;81;20935;-72
2021/06/11 04:47:18;;;;;;;4.30;3.42;;;;;;;17.38;90.38;101000.39;1758853;81;21098;-74
2021/06/11 04:49:46;;;;;;;4.67;4.03;;;;;;;17.48;89.87;100997.78;1758953;81;20978;-79
2021/06/11 04:52:14;;;;;;;7.75;3.67;;;;;;;17.57;88.77;100996.50;1758920;81;21013;-72
2021/06/11 04:54:41;;;;;;;16.85;5.58;;;;;;;17.64;88.15;100991.53;1758822;81;20939;-72
2021/06/11 04:57:08;;;;;;;8.73;3.47;;;;;;;17.70;88.38;100986.56;1758824;81;20876;-73
2021/06/11 04:59:35;;;;;;;9.88;3.50;;;;;;;17.82;88.24;100988.55;1758891;81;21080;-70
2021/06/11 05:02:02;;;;;;;6.85;4.03;;;;;;;17.92;87.69;100993.30;1758833;81;20923;-77
2021/06/11 05:04:29;;;;;;;6.65;3.95;;;;;;;17.99;85.97;100997.03;1762544;81;21439;-75
2021/06/11 05:06:57;;;;;;;7.70;4.10;;;;;;;18.02;85.75;100998.55;1767320;81;21485;-73
2021/06/11 05:09:24;;;;;;;4.58;3.67;;;;;;;18.07;85.90;100999.77;1767326;81;21029;-79
2021/06/11 05:11:52;;;;;;;11.33;3.62;;;;;;;18.11;84.59;101001.63;1767289;81;21098;-77
2021/06/11 05:14:21;;;;;;;4.70;3.40;;;;;;;18.11;84.20;101003.78;1767103;81;21497;-72
2021/06/11 05:16:48;;;;;;;7.15;3.72;;;;;;;18.13;83.86;101005.77;1767192;81;20939;-75
2021/06/11 05:19:15;;;;;;;6.20;3.95;;;;;;;18.18;83.81;101009.30;1767093;81;20954;-78
2021/06/11 05:21:42;;;;;;;6.08;3.85;;;;;;;18.23;83.54;101007.89;1767182;81;21512;-75
2021/06/11 05:24:09;;;;;;;8.00;4.55;;;;;;;18.29;82.95;101010.43;1767260;81;21898;-76
2021/06/11 05:26:36;;;;;;;5.78;4.12;;;;;;;18.33;82.24;101014.44;1767055;81;21436;-75
2021/06/11 05:29:03;;;;;;;8.08;4.25;;;;;;;18.36;81.83;101015.47;1767208;81;21548;-75
2021/06/11 05:31:31;;;;;;;15.70;5.03;;;;;;;18.42;81.61;101009.64;1767554;81;20974;-80
2021/06/11 05:33:58;;;;;;;4.17;3.55;;;;;;;18.46;82.34;101009.22;1767326;81;21569;-75
2021/06/11 05:36:26;;;;;;;9.98;4.15;;;;;;;18.53;82.06;101004.25;1767269;81;21142;-75
2021/06/11 05:38:53;;;;;;;4.50;3.65;;;;;;;18.61;81.77;101006.14;1767130;81;20926;-76
2021/06/11 05:41:20;;;;;;;7.95;3.85;;;;;;;18.67;81.70;101002.45;1767205;81;20978;-78
2021/06/11 05:43:51;;;;;;;6.03;4.55;;;;;;;18.76;81.83;101007.34;1767162;81;21520;-74
2021/06/11 05:46:17;;;;;;;7.95;4.28;;;;;;;18.85;81.11;101009.09;1767073;81;21011;-71
2021/06/11 05:48:44;;;;;;;8.70;4.78;;;;;;;18.90;80.87;101014.25;1767356;81;21097;-76
2021/06/11 05:51:11;;;;;;;9.18;3.95;;;;;;;18.95;80.33;101008.05;1766991;81;20962;-74
2021/06/11 05:53:38;;;;;;;8.53;4.17;;;;;;;18.98;79.96;101006.45;1767293;81;20888;-78
2021/06/11 05:56:05;;;;;;;10.45;4.65;;;;;;;19.03;79.56;101008.65;1767192;81;20956;-77
2021/06/11 05:58:32;;;;;;;4.42;3.87;;;;;;;19.08;79.87;101012.16;1767213;81;21541;-81
2021/06/11 06:01:01;;;;;;;8.45;4.00;;;;;;;19.17;79.76;101020.48;1757057;81;21882;-75
2021/06/11 06:03:29;;;;;;;5.83;3.72;;;;;;;19.23;79.92;101018.09;1754099;81;21027;-77
2021/06/11 06:05:57;;;;;;;14.05;4.60;;;;;;;19.31;79.68;101014.70;1697960;81;21069;-72
2021/06/11 06:08:24;;;;;;;9.73;4.20;;;;;;;19.36;79.83;101011.98;1731420;82;21050;-72
2021/06/11 06:10:51;;;;;;;6.40;5.20;;;;;;;19.46;79.73;101018.53;1731873;82;21628;-76
2021/06/11 06:13:20;;;;;;;8.35;5.10;;;;;;;19.52;79.20;101018.76;1731686;82;21147;-74
2021/06/11 06:15:48;;;;;;;41.68;20.23;;;;;;;19.59;79.08;101026.05;1731798;82;21128;-77
2021/06/11 06:18:16;;;;;;;15.85;8.28;;;;;;;19.67;79.06;101020.36;1747544;81;20978;-72
2021/06/11 06:20:46;;;;;;;23.65;9.68;;;;;;;19.73;77.68;101021.55;1760218;81;20930;-80
2021/06/11 06:23:14;;;;;;;12.45;6.08;;;;;;;19.79;77.23;101016.52;1762186;81;21140;-73
2021/06/11 06:25:41;;;;;;;10.75;5.45;;;;;;;19.85;77.49;101020.34;1761837;81;21095;-70
2021/06/11 06:28:09;;;;;;;6.65;4.75;;;;;;;19.92;77.04;101023.54;1761595;81;21202;-76
2021/06/11 06:30:38;;;;;;;8.73;4.20;;;;;;;19.98;76.75;101020.30;1751825;81;22376;-75
2021/06/11 06:33:07;;;;;;;7.83;4.20;;;;;;;20.06;76.63;101019.05;1681295;84;20982;-78
2021/06/11 06:35:34;;;;;;;7.47;4.12;;;;;;;20.18;76.06;101026.69;1732216;82;20991;-80
2021/06/11 06:38:01;;;;;;;6.80;4.20;;;;;;;20.25;75.46;101027.25;1732342;81;21839;-79
2021/06/11 06:40:28;;;;;;;3.98;3.58;;;;;;;20.31;74.49;101030.61;1738448;81;21461;-75
2021/06/11 06:42:56;;;;;;;11.12;4.05;;;;;;;20.35;72.96;101024.06;1731910;81;21045;-76
2021/06/11 06:45:23;;;;;;;9.18;4.30;;;;;;;20.37;73.26;101027.35;1732105;81;21121;-72
2021/06/11 06:47:51;;;;;;;9.80;3.60;;;;;;;20.44;73.46;101031.52;1746659;81;21010;-76
2021/06/11 06:50:20;;;;;;;6.37;3.65;;;;;;;20.52;73.28;101028.42;1760622;81;21267;-76
2021/06/11 06:52:53;;;;;;;7.33;3.92;;;;;;;20.62;72.55;101027.48;1742622;81;20966;-77
2021/06/11 06:55:31;;;;;;;5.95;4.15;;;;;;;20.69;72.79;101031.98;1682388;84;21082;-76
2021/06/11 06:58:02;;;;;;;4.33;3.92;;;;;;;20.75;72.76;101024.75;1694989;84;21127;-76
2021/06/11 07:00:29;;;;;;;6.45;3.75;;;;;;;20.83;72.13;101027.94;1732722;82;21053;-74
2021/06/11 07:02:56;;;;;;;5.92;3.50;;;;;;;20.88;71.75;101026.47;1731422;82;21934;-78
2021/06/11 07:05:23;;;;;;;5.75;4.12;;;;;;;20.93;72.09;101027.32;1731472;82;21167;-76
2021/06/11 07:07:51;;;;;;;4.90;4.00;;;;;;;21.00;72.16;101013.31;1731047;82;21009;-73
2021/06/11 07:10:18;;;;;;;6.97;4.10;;;;;;;21.09;70.97;101018.97;1727417;83;20995;-73
2021/06/11 07:12:46;;;;;;;6.45;4.62;;;;;;;21.18;70.65;101015.05;1728028;83;21050;-77
2021/06/11 07:15:14;;;;;;;5.40;4.10;;;;;;;21.24;70.85;101013.92;1727927;83;21812;-79
2021/06/11 07:17:41;;;;;;;4.30;3.90;;;;;;;21.32;69.53;101016.56;1727992;83;20996;-74
2021/06/11 07:20:10;;;;;;;7.65;4.25;;;;;;;21.33;69.34;101014.27;1728273;83;20875;-76
2021/06/11 07:22:37;;;;;;;6.95;4.05;;;;;;;21.36;69.06;101008.66;1728241;83;21065;-77
2021/06/11 07:25:06;;;;;;;6.10;4.62;;;;;;;21.43;69.00;101010.99;1726521;83;21133;-76
2021/06/11 07:27:34;;;;;;;6.80;3.80;;;;;;;21.49;69.64;101018.26;1726550;83;21129;-77
2021/06/11 07:30:03;;;;;;;5.95;3.92;;;;;;;21.48;70.00;101015.28;1726431;83;21139;-74
2021/06/11 07:32:30;;;;;;;7.10;4.12;;;;;;;21.51;67.45;101016.27;1725450;83;21090;-74
2021/06/11 07:34:58;;;;;;;5.30;4.20;;;;;;;21.54;68.66;101013.79;1725642;83;21129;-75
2021/06/11 07:37:25;;;;;;;5.03;3.87;;;;;;;21.55;68.66;101008.36;1726480;83;21542;-75
2021/06/11 07:39:52;;;;;;;6.05;4.08;;;;;;;21.55;68.67;101004.89;1725753;83;21448;-79
2021/06/11 07:42:22;;;;;;;6.50;4.10;;;;;;;21.60;69.32;101011.84;1726282;83;21052;-79
2021/06/11 07:44:49;;;;;;;4.90;4.40;;;;;;;21.71;67.64;101013.31;1726459;81;20962;-78
2021/06/11 07:47:16;;;;;;;4.70;4.10;;;;;;;21.73;67.58;101012.67;1731121;82;21109;-75
2021/06/11 07:49:44;;;;;;;8.43;4.08;;;;;;;21.80;68.30;101016.28;1731903;82;20966;-79
2021/06/11 07:52:11;;;;;;;6.40;3.85;;;;;;;21.89;68.02;101018.80;1726658;83;22150;-74
2021/06/11 07:54:39;;;;;;;4.78;4.00;;;;;;;21.99;67.02;101022.59;1726333;83;21026;-75
2021/06/11 07:57:07;;;;;;;6.90;4.00;;;;;;;22.06;66.72;101022.27;1726179;83;21070;-72
2021/06/11 07:59:42;;;;;;;5.75;4.47;;;;;;;22.13;64.90;101025.89;1725833;83;21148;-73
2021/06/11 08:02:12;;;;;;;8.83;4.42;;;;;;;22.17;65.90;101026.39;1726538;83;21149;-74
2021/06/11 08:04:39;;;;;;;4.97;3.98;;;;;;;22.18;65.54;101021.44;1751274;81;21069;-73
2021/06/11 08:07:07;;;;;;;4.53;4.10;;;;;;;22.17;65.05;101027.71;1733482;81;21050;-73
2021/06/11 08:09:35;;;;;;;7.03;4.15;;;;;;;22.18;64.85;101028.85;1739696;81;21043;-74
2021/06/11 08:12:02;;;;;;;10.40;4.37;;;;;;;22.25;64.76;101021.91;1762708;81;21015;-78
2021/06/11 08:14:29;;;;;;;8.95;4.12;;;;;;;22.28;63.92;101018.92;1762551;81;21506;-74
2021/06/11 08:16:58;;;;;;;5.47;4.37;;;;;;;22.28;64.09;101029.50;1762323;81;21263;-71
2021/06/11 08:19:31;;;;;;;4.08;3.70;;;;;;;22.33;63.97;101031.16;1784607;79;21041;-73
2021/06/11 08:21:55;;;;;;;6.03;4.20;;;;;;;22.37;63.26;101023.72;1768298;79;21474;-73
2021/06/11 08:24:22;;;;;;;10.55;4.58;;;;;;;22.40;64.11;101017.57;1766409;81;21005;-72
2021/06/11 08:26:50;;;;;;;10.38;3.80;;;;;;;22.48;63.28;101014.92;1702500;84;21576;-76
2021/06/11 08:29:19;;;;;;;5.97;4.00;;;;;;;22.58;63.72;101000.19;1732038;82;21676;-73
2021/06/11 08:31:46;;;;;;;9.60;4.00;;;;;;;22.72;62.61;101012.71;1731811;82;21054;-73
2021/06/11 08:34:13;;;;;;;3.83;3.52;;;;;;;22.74;62.92;101009.91;1702598;84;21631;-77
2021/06/11 08:36:41;;;;;;;6.25;3.45;;;;;;;22.78;61.35;101014.70;1731798;82;21572;-75
2021/06/11 08:39:08;;;;;;;5.37;4.28;;;;;;;22.79;60.92;101009.72;1703024;84;20907;-76
2021/06/11 08:41:35;;;;;;;5.08;3.85;;;;;;;22.87;61.76;101008.38;1732345;82;21938;-75
2021/06/11 08:44:03;;;;;;;10.65;4.00;;;;;;;22.96;62.10;101011.30;1703248;84;21066;-79
2021/06/11 08:46:31;;;;;;;7.95;4.08;;;;;;;23.00;61.38;101013.94;1731785;82;21058;-77
2021/06/11 08:49:01;;;;;;;8.10;4.03;;;;;;;23.11;61.67;101007.41;1702787;84;21619;-76
2021/06/11 08:51:29;;;;;;;7.40;4.20;;;;;;;23.24;60.29;101014.29;1731748;82;21023;-77
2021/06/11 08:53:57;;;;;;;7.90;4.00;;;;;;;23.39;60.37;101007.23;1702962;84;21045;-72
2021/06/11 08:56:24;;;;;;;6.45;3.80;;;;;;;23.53;60.52;101000.39;1731590;82;21074;-74
2021/06/11 08:58:53;;;;;;;7.85;3.40;;;;;;;23.69;59.22;101010.37;1702737;84;21062;-74
2021/06/11 09:01:20;;;;;;;5.67;3.92;;;;;;;23.73;57.69;101003.39;1732155;82;21519;-76
2021/06/11 09:03:52;;;;;;;6.58;3.72;;;;;;;23.75;57.40;101012.80;1702644;84;21093;-78
2021/06/11 09:06:19;;;;;;;6.30;4.10;;;;;;;23.80;57.46;100997.21;1731858;82;21759;-73
2021/06/11 09:09:01;;;;;;;5.87;3.33;;;;;;;23.90;58.28;100997.77;1702563;84;21005;-74
2021/06/11 09:11:33;;;;;;;5.55;3.17;;;;;;;24.08;56.93;101005.41;1731851;82;21058;-74
2021/06/11 09:14:11;;;;;;;5.60;5.08;;;;;;;24.13;56.00;101009.19;1703068;84;21078;-78
2021/06/11 09:16:50;;;;;;;9.35;3.60;;;;;;;24.19;56.49;100993.05;1732049;82;21140;-75
2021/06/11 09:19:21;;;;;;;8.25;3.77;;;;;;;24.39;56.82;100999.47;1702977;84;22355;-75
2021/06/11 09:21:50;;;;;;;5.17;3.70;;;;;;;24.47;55.71;101003.37;1731751;82;20927;-78
2021/06/11 09:24:24;;;;;;;6.20;5.35;;;;;;;24.40;54.44;101001.12;1702756;84;21025;-79
2021/06/11 09:27:06;;;;;;;7.47;4.12;;;;;;;24.34;55.64;100997.88;1731744;82;21062;-77
2021/06/11 09:29:46;;;;;;;6.70;3.50;;;;;;;24.38;54.70;101001.00;1702603;84;21186;-76
2021/06/11 09:32:26;;;;;;;6.20;3.62;;;;;;;24.33;54.22;101003.35;1731564;82;21904;-75
2021/06/11 09:35:02;;;;;;;3.62;3.22;;;;;;;24.27;54.39;100997.45;1702794;84;21069;-74
2021/06/11 09:37:40;;;;;;;9.73;4.37;;;;;;;24.22;52.41;100994.00;1731731;82;32844;-76
2021/06/11 09:40:12;;;;;;;4.60;3.65;;;;;;;24.20;54.50;100990.72;1703439;84;21123;-75
2021/06/11 09:42:43;;;;;;;4.30;3.92;;;;;;;24.30;54.28;100993.11;1733202;82;21093;-74
2021/06/11 09:45:13;;;;;;;5.07;3.97;;;;;;;24.33;53.62;100991.41;1704007;84;21160;-73
2021/06/11 09:47:45;;;;;;;3.83;3.52;;;;;;;24.39;54.39;100981.40;1732156;82;21022;-80
2021/06/11 09:50:22;;;;;;;;;;;;;;;24.50;54.24;100984.44;1705645;84;21517;-74
2021/06/11 09:53:07;;;;;;;4.50;3.50;;;;;;;24.56;53.31;100978.89;1702877;82;20092;-71
2021/06/11 09:55:41;;;;;;;6.08;3.60;;;;;;;24.60;53.37;100974.88;1702938;84;21133;-75
2021/06/11 09:58:24;;;;;;;4.00;3.60;;;;;;;24.74;53.85;100974.84;1731858;82;21208;-75
2021/06/11 10:01:02;;;;;;;5.22;3.50;;;;;;;25.05;51.76;100972.45;1720212;82;21594;-78
2021/06/11 10:03:34;;;;;;;5.78;3.20;;;;;;;25.22;51.77;100964.08;1703260;83;21191;-74
2021/06/11 10:06:06;;;;;;;3.62;3.22;;;;;;;25.37;50.93;100966.66;1725639;82;21036;-76
2021/06/11 10:08:38;;;;;;;5.92;3.80;;;;;;;25.40;50.73;100966.28;1733438;82;21063;-75
2021/06/11 10:11:10;;;;;;;7.20;3.35;;;;;;;25.39;50.91;100963.33;1724877;82;21094;-75
2021/06/11 10:13:37;;;;;;;6.05;3.17;;;;;;;25.34;50.39;100951.61;1704189;84;28223;-75
2021/06/11 10:16:08;;;;;;;5.65;3.50;;;;;;;25.31;51.10;100951.48;1704406;84;21011;-82
2021/06/11 10:18:35;;;;;;;7.97;3.70;;;;;;;25.33;50.74;100953.47;1704152;84;21092;-79
2021/06/11 10:21:04;;;;;;;4.85;3.45;;;;;;;25.37;51.32;100950.72;1703516;84;21013;-79
2021/06/11 10:23:33;;;;;;;5.30;3.42;;;;;;;25.44;51.28;100952.12;1704186;84;21184;-75
2021/06/11 10:26:02;;;;;;;4.55;3.33;;;;;;;25.47;50.64;100947.75;1704695;84;20977;-81
2021/06/11 10:28:40;;;;;;;3.60;3.08;;;;;;;25.57;50.59;100945.63;1696413;83;21064;-83
2021/06/11 10:31:10;;;;;;;3.95;3.37;;;;;;;25.62;48.80;100942.70;1725616;82;21609;-74
2021/06/11 10:33:51;;;;;;;5.25;3.15;;;;;;;25.54;48.75;100948.16;1734161;82;21107;-73
2021/06/11 10:36:40;;;;;;;4.65;3.22;;;;;;;25.52;49.73;100941.41;1733726;82;21223;-76
2021/06/11 10:39:22;;;;;;;4.00;3.30;;;;;;;25.64;49.95;100941.19;1732996;82;21039;-79
2021/06/11 10:42:08;;;;;;;4.60;3.15;;;;;;;25.64;48.36;100938.03;1734120;82;21936;-74
2021/06/11 10:44:52;;;;;;;4.40;3.10;;;;;;;25.45;49.63;100937.83;1733547;82;21134;-75
2021/06/11 10:47:40;;;;;;;3.17;2.70;;;;;;;25.46;48.27;100940.31;1733816;82;21636;-72
2021/06/11 10:50:17;;;;;;;4.05;3.10;;;;;;;25.55;48.49;100933.05;1730314;82;21865;-75
2021/06/11 10:53:00;;;;;;;3.58;3.22;;;;;;;25.67;48.96;100936.31;1763628;81;21010;-78
2021/06/11 10:55:46;;;;;;;4.22;3.30;;;;;;;25.77;48.02;100931.48;1728443;82;21592;-71
2021/06/11 10:58:19;;;;;;;4.62;2.80;;;;;;;25.84;48.77;100924.06;1739295;81;21163;-71
2021/06/11 11:00:46;;;;;;;3.12;2.92;;;;;;;25.78;47.88;100921.69;1735292;82;21132;-74
2021/06/11 11:03:28;;;;;;;8.28;3.00;;;;;;;25.76;47.85;100924.52;1766366;81;21090;-74
2021/06/11 11:05:55;;;;;;;3.98;3.33;;;;;;;25.72;47.40;100922.42;1731022;82;21231;-77
2021/06/11 11:08:22;;;;;;;6.40;3.05;;;;;;;25.74;47.88;100924.41;1731929;82;21014;-76
2021/06/11 11:10:54;;;;;;;5.30;3.00;;;;;;;25.86;48.37;100919.37;1677851;83;21570;-79
2021/06/11 11:13:28;;;;;;;;;;;;;;;25.89;48.34;100917.64;1659657;86;21080;-74
2021/06/11 11:15:57;;;;;;;7.08;3.02;;;;;;;25.89;48.00;100910.49;1650212;86;21139;-73
2021/06/11 11:18:36;;;;;;;7.37;3.60;;;;;;;25.85;48.50;100913.22;1698630;84;20985;-78
2021/06/11 11:21:30;;;;;;;6.22;3.00;;;;;;;25.82;47.90;100907.47;1698507;84;22350;-70
2021/06/11 11:23:59;;;;;;;5.65;2.95;;;;;;;25.84;47.64;100908.94;1698786;84;21108;-77
2021/06/11 11:26:48;;;;;;;6.53;2.95;;;;;;;26.01;47.17;100894.30;1699398;83;21084;-75
2021/06/11 11:29:16;;;;;;;3.33;3.02;;;;;;;26.63;46.79;100892.89;1698794;84;21132;-79
2021/06/11 11:31:45;;;;;;;3.30;3.00;;;;;;;26.90;44.21;100894.34;1698219;84;21556;-73
2021/06/11 11:34:12;;;;;;;7.25;3.67;;;;;;;26.87;45.56;100901.39;1698627;84;21049;-74
2021/06/11 11:36:39;;;;;;;5.45;3.65;;;;;;;26.74;44.99;100898.13;1698606;83;20994;-74
2021/06/11 11:39:09;;;;;;;8.93;3.22;;;;;;;26.67;45.60;100899.97;1698579;83;21650;-76